Flight Track Log - Related Links

Times and Time Zones

All times are in EST time to prevent confusion due to time zone crossing. See the FIN666 flight status page for this flight to view local times or setup timezone preferences in your user account.

Time Position Orientation Groundspeed Altitude Reporting Facility
EST Latitude Longitude Course Direction KTS MPH feet Rate Location/Type
Sun 07:26:00 AM 55.8420 13.1192 49° Northeast  Level Estimated
Sun 07:27:00 AM 55.9164 13.2747 50° Northeast  Level Estimated
Sun 07:28:00 AM 55.9905 13.4309 50° Northeast  Level Estimated
Sun 07:29:00 AM 56.0644 13.5877 50° Northeast  Level Estimated
Sun 07:30:00 AM 56.1381 13.7451 50° Northeast  Level Estimated
Sun 07:31:00 AM 56.2149 13.9101 50° Northeast  Level Estimated
Sun 07:32:00 AM 56.2915 14.0759 50° Northeast  Level Estimated
Sun 07:33:00 AM 56.3679 14.2423 50° Northeast  Level Estimated
Sun 07:34:00 AM 56.4440 14.4093 50° Northeast  Level Estimated
Sun 07:35:00 AM 56.5200 14.5771 51° Northeast  Level Estimated
Sun 07:36:00 AM 56.5956 14.7455 51° Northeast  Level Estimated
Sun 07:37:00 AM 56.6711 14.9146 51° Northeast  Level Estimated
Sun 07:38:00 AM 56.7463 15.0843 51° Northeast  Level Estimated
Sun 07:39:00 AM 56.8213 15.2548 51° Northeast  Level Estimated
Sun 07:40:00 AM 56.8961 15.4259 51° Northeast  Level Estimated
Sun 07:41:00 AM 56.9706 15.5977 51° Northeast  Level Estimated
Sun 07:42:00 AM 57.0449 15.7702 52° Northeast  Level Estimated
Sun 07:43:00 AM 57.1201 15.9460 52° Northeast  Level Estimated
Sun 07:44:00 AM 57.1950 16.1225 52° Northeast  Level Estimated
Sun 07:45:00 AM 57.2697 16.2998 52° Northeast  Level Estimated
Sun 07:46:00 AM 57.3442 16.4778 52° Northeast  Level Estimated
Sun 07:47:00 AM 57.4184 16.6565 52° Northeast  Level Estimated
Sun 07:48:00 AM 57.4923 16.8359 52° Northeast  Level Estimated
Sun 07:49:00 AM 57.5659 17.0160 53° Northeast  Level Estimated
Sun 07:50:00 AM 57.6394 17.1969 53° Northeast  Level Estimated
Sun 07:51:00 AM 57.7125 17.3785 53° Northeast  Level Estimated
Sun 07:52:00 AM 57.7854 17.5608 53° Northeast  Level Estimated
Sun 07:53:00 AM 57.8581 17.7439 53° Northeast  Level Estimated
Sun 07:54:00 AM 57.9304 17.9277 53° Northeast  Level Estimated
Sun 07:55:00 AM 58.0025 18.1122 54° Northeast  Level Estimated
Sun 07:56:00 AM 58.0744 18.2975 54° Northeast  Level Estimated
Sun 07:57:00 AM 58.1459 18.4836 54° Northeast  Level Estimated
Sun 07:58:00 AM 58.2172 18.6703 54° Northeast  Level Estimated
Sun 07:59:00 AM 58.2882 18.8579 54° Northeast  Level Estimated
Sun 08:00:00 AM 58.3590 19.0462 54° Northeast  Level Estimated
Sun 08:01:00 AM 58.4294 19.2352 54° Northeast  Level Estimated
Sun 08:02:00 AM 58.4996 19.4250 55° Northeast  Level Estimated
Sun 08:03:00 AM 58.5695 19.6156 55° Northeast  Level Estimated
Sun 08:04:00 AM 58.6391 19.8069 55° Northeast  Level Estimated
Sun 08:05:00 AM 58.7085 19.9990 55° Northeast  Level Estimated
Sun 08:06:00 AM 58.7775 20.1918 55° Northeast  Level Estimated
Sun 08:07:00 AM 58.8463 20.3854 55° Northeast  Level Estimated
Sun 08:08:00 AM 58.9148 20.5798 56° Northeast  Level Estimated
Sun 08:09:00 AM 58.9840 20.7780 56° Northeast  Level Estimated
Sun 08:10:00 AM 59.0529 20.9769 56° Northeast  Level Estimated
Sun 08:11:00 AM 59.1215 21.1767 56° Northeast  Level Estimated
Sun 08:12:00 AM 59.1898 21.3773 56° Northeast  Level Estimated
Sun 08:13:00 AM 59.2578 21.5786 56° Northeast  Level Estimated
Sun 08:14:00 AM 59.3255 21.7808 57° Northeast  Level Estimated
Sun 08:15:00 AM 59.3929 21.9837 57° Northeast  Level Estimated
Sun 08:16:00 AM 59.4599 22.1875 57° Northeast  Level Estimated
Sun 08:17:00 AM 59.5267 22.3921 57° Northeast  Level Estimated
Sun 08:18:00 AM 59.5931 22.5975 57° Northeast  Level Estimated
Sun 08:19:00 AM 59.6592 22.8037 58° Northeast  Level Estimated
Sun 08:20:00 AM 59.7249 23.0107 58° Northeast  Level Estimated
Sun 08:21:00 AM 59.7904 23.2185 58° Northeast  Level Estimated
Sun 08:22:00 AM 59.8555 23.4272 58° Northeast  Level Estimated
Sun 08:23:00 AM 59.9203 23.6366 58° Northeast  Level Estimated
Sun 08:24:00 AM 59.9847 23.8469 58° Northeast  Level Estimated
Sun 08:25:00 AM 60.0488 24.0580 59° Northeast  Level Estimated
Sun 08:26:00 AM 60.1126 24.2699 59° Northeast  Level Estimated
Sun 08:27:00 AM 60.1760 24.4826 59° Northeast  Level Estimated
Sun 08:28:00 AM 60.2391 24.6962 59° Northeast  Level Estimated
Sun 08:29:00 AM 60.3019 24.9106 59° Northeast  Level Estimated
Sun 08:30:00 AM 60.3172 24.9633 60° Northeast  Level Estimated
Sun 08:31:00 AM 60.3172 24.9633 37° Northeast  Level Estimated
Sun 08:32:00 AM 60.3172 24.9633 37° Northeast  Level Estimated
Sun 08:33:00 AM 60.3172 24.9633 37° Northeast  Level Estimated
Sun 08:34:00 AM 60.3172 24.9633 37° Northeast  Level Estimated
Sun 08:35:00 AM 60.3172 24.9633 37° Northeast  Level Estimated
Sun 08:36:00 AM 60.3172 24.9633 37° Northeast  Level Estimated
Sun 08:37:00 AM 60.3172 24.9633 37° Northeast  Level Estimated
Sun 08:38:00 AM 60.3172 24.9633 37° Northeast  Level Estimated
Sun 08:39:00 AM 60.3172 24.9633 37° Northeast  Level Estimated
Sun 08:40:00 AM 60.3172 24.9633 37° Northeast  Level Estimated
Sun 08:41:00 AM 60.3172 24.9633 37° Northeast  Level Estimated
Sun 08:42:00 AM 60.3172 24.9633 37° Northeast  Level Estimated
Sun 08:43:00 AM 60.3172 24.9633 37° Northeast  Level Estimated

Login

Don't have an account? Register now (free) for customized features, flight alerts, and more!